Time;durP1;ratioP1;P1;durP2;ratioP2;P2;SDS_P1;SDS_P2;PMS_P1;PMS_P2;Temp;Humidity;BMP_temperature;BMP_pressure;BME280_temperature;BME280_humidity;BME280_pressure;Samples;Min_cycle;Max_cycle;Signal;HPM_P1;HPM_P2
2022/04/03 00:01:26;;;;;;;1.90;1.70;;;-0.40;99.90;;;;;;7377756;19;20352;-62
2022/04/03 00:03:52;;;;;;;1.65;1.55;;;-0.40;99.90;;;;;;7375892;19;20345;-63
2022/04/03 00:06:18;;;;;;;1.40;1.30;;;-0.50;99.90;;;;;;7377155;19;20349;-62
2022/04/03 00:08:44;;;;;;;2.00;1.80;;;-0.50;99.90;;;;;;7374700;19;20420;-63
2022/04/03 00:11:09;;;;;;;1.95;1.77;;;-0.50;99.90;;;;;;7382074;19;20344;-62
2022/04/03 00:13:36;;;;;;;2.80;1.60;;;-0.60;99.90;;;;;;7377159;19;20333;-63
2022/04/03 00:16:04;;;;;;;2.03;1.88;;;-0.70;99.90;;;;;;7370678;19;20884;-63
2022/04/03 00:18:30;;;;;;;1.92;1.75;;;-0.70;99.90;;;;;;7380580;19;20335;-63
2022/04/03 00:20:55;;;;;;;1.60;1.50;;;-0.80;99.90;;;;;;7373177;19;20766;-63
2022/04/03 00:23:23;;;;;;;1.73;1.63;;;-0.90;99.90;;;;;;7377784;19;20333;-64
2022/04/03 00:25:50;;;;;;;3.00;1.70;;;-1.00;99.90;;;;;;7382459;19;21292;-63
2022/04/03 00:28:16;;;;;;;1.90;1.70;;;-1.00;99.90;;;;;;7380084;19;20340;-63
2022/04/03 00:30:42;;;;;;;2.83;1.90;;;-1.00;99.90;;;;;;7352968;19;20303;-63
2022/04/03 00:33:08;;;;;;;1.80;1.58;;;-1.20;99.90;;;;;;7380330;19;20329;-62
2022/04/03 00:35:34;;;;;;;2.95;1.52;;;-1.30;99.90;;;;;;7379086;19;20342;-63
2022/04/03 00:38:00;;;;;;;1.60;1.50;;;-1.30;99.90;;;;;;7381276;19;20345;-62
2022/04/03 00:40:26;;;;;;;1.70;1.50;;;-1.20;99.90;;;;;;7377247;19;20352;-63
2022/04/03 00:42:52;;;;;;;1.73;1.63;;;-1.20;99.90;;;;;;7377845;19;20351;-62
2022/04/03 00:45:19;;;;;;;2.67;2.10;;;-1.30;99.90;;;;;;7382207;19;20329;-62
2022/04/03 00:47:45;;;;;;;1.70;1.60;;;-1.40;99.90;;;;;;7380609;19;21246;-62
2022/04/03 00:50:11;;;;;;;2.67;2.17;;;-1.50;99.90;;;;;;7377343;19;20364;-62
2022/04/03 00:52:37;;;;;;;4.00;2.03;;;-1.70;99.90;;;;;;7383667;19;20320;-62
2022/04/03 00:55:03;;;;;;;2.10;1.90;;;-1.70;99.90;;;;;;7367715;19;20353;-62
2022/04/03 00:57:29;;;;;;;2.22;1.80;;;-1.80;99.90;;;;;;7317770;19;20338;-63
2022/04/03 00:59:55;;;;;;;2.22;1.70;;;-1.80;99.90;;;;;;7378447;19;20332;-62
2022/04/03 01:02:21;;;;;;;1.60;1.40;;;-1.80;99.90;;;;;;7377993;19;20759;-63
2022/04/03 01:04:47;;;;;;;2.40;1.60;;;-1.90;99.90;;;;;;7380236;19;20324;-62
2022/04/03 01:07:13;;;;;;;2.65;1.60;;;-1.90;99.90;;;;;;7379583;19;20375;-62
2022/04/03 01:09:39;;;;;;;1.92;1.65;;;-1.90;99.90;;;;;;7373766;19;20337;-63
2022/04/03 01:12:05;;;;;;;1.63;1.53;;;-1.90;99.90;;;;;;7376756;19;20412;-62
2022/04/03 01:14:31;;;;;;;1.70;1.60;;;-2.00;99.90;;;;;;7380736;19;20537;-62
2022/04/03 01:16:56;;;;;;;1.57;1.47;;;-2.10;99.90;;;;;;7385089;19;20317;-62
2022/04/03 01:19:22;;;;;;;3.45;2.00;;;-2.10;99.90;;;;;;7379781;19;20369;-62
2022/04/03 01:21:47;;;;;;;1.65;1.55;;;-2.20;99.90;;;;;;7379055;19;20332;-62
2022/04/03 01:24:17;;;;;;;2.27;1.57;;;-2.20;99.90;;;;;;7382421;19;20364;-62
2022/04/03 01:26:43;;;;;;;2.08;1.52;;;-2.20;99.90;;;;;;7380217;19;20332;-62
2022/04/03 01:29:09;;;;;;;1.70;1.60;;;-2.30;99.90;;;;;;7377471;19;20420;-62
2022/04/03 01:31:34;;;;;;;1.93;1.73;;;-2.30;99.90;;;;;;7372276;19;21237;-62
2022/04/03 01:34:00;;;;;;;2.60;1.80;;;-2.30;99.90;;;;;;7382052;19;20356;-63
2022/04/03 01:36:26;;;;;;;1.48;1.38;;;-2.20;99.90;;;;;;7379860;19;20320;-63
2022/04/03 01:38:51;;;;;;;2.00;1.80;;;-2.30;99.90;;;;;;7380785;19;20983;-62
2022/04/03 01:41:17;;;;;;;2.63;1.93;;;-2.30;99.90;;;;;;7378210;19;20344;-62
2022/04/03 01:43:42;;;;;;;2.70;2.03;;;-2.40;99.90;;;;;;7377579;19;20332;-62
2022/04/03 01:46:08;;;;;;;1.77;1.67;;;-2.40;99.90;;;;;;7382074;19;20968;-62
2022/04/03 01:48:34;;;;;;;3.15;1.90;;;-2.40;99.90;;;;;;7375789;19;20329;-62
2022/04/03 01:50:59;;;;;;;2.08;1.88;;;-2.60;99.90;;;;;;7376182;19;20312;-63
2022/04/03 01:53:26;;;;;;;1.73;1.63;;;-2.50;99.90;;;;;;7379044;19;20339;-62
2022/04/03 01:56:03;;;;;;;3.08;1.88;;;-2.50;99.90;;;;;;7380474;19;20347;-63
2022/04/03 01:58:29;;;;;;;2.17;1.90;;;-2.60;99.90;;;;;;7365791;19;20335;-62
2022/04/03 02:00:55;;;;;;;1.70;1.60;;;-2.50;99.90;;;;;;7362669;19;21373;-62
2022/04/03 02:03:20;;;;;;;2.40;2.00;;;-2.60;99.90;;;;;;7379213;19;20363;-62
2022/04/03 02:05:46;;;;;;;2.40;1.90;;;-2.70;99.90;;;;;;7376671;19;20311;-62
2022/04/03 02:08:12;;;;;;;2.05;1.85;;;-2.70;99.90;;;;;;7378957;19;22546;-62
2022/04/03 02:10:38;;;;;;;2.10;1.83;;;-2.80;99.90;;;;;;7371382;19;20381;-62
2022/04/03 02:13:04;;;;;;;2.20;2.00;;;-2.80;99.90;;;;;;7377249;19;20419;-63
2022/04/03 02:15:31;;;;;;;2.30;2.10;;;-2.90;99.90;;;;;;7378458;19;20817;-62
2022/04/03 02:17:56;;;;;;;2.50;2.30;;;-3.00;99.90;;;;;;7375544;19;21027;-63
2022/04/03 02:20:22;;;;;;;2.23;2.03;;;-3.00;99.90;;;;;;7376549;19;20339;-62
2022/04/03 02:22:48;;;;;;;3.50;2.20;;;-3.10;99.90;;;;;;7375066;19;20701;-62
2022/04/03 02:25:14;;;;;;;2.37;2.00;;;-3.10;99.90;;;;;;7375494;19;20360;-62
2022/04/03 02:27:40;;;;;;;2.15;1.95;;;-3.10;99.90;;;;;;7377913;19;20321;-62
2022/04/03 02:30:08;;;;;;;2.10;1.90;;;-3.20;99.90;;;;;;7370809;19;20423;-63
2022/04/03 02:32:38;;;;;;;1.88;1.77;;;-3.20;99.90;;;;;;7377332;19;20304;-62
2022/04/03 02:35:08;;;;;;;4.00;2.20;;;-3.20;99.90;;;;;;7377484;19;20332;-62
2022/04/03 02:37:37;;;;;;;2.33;1.85;;;-3.20;99.90;;;;;;7377960;19;20304;-62
2022/04/03 02:40:04;;;;;;;2.72;2.10;;;-3.20;99.90;;;;;;7373832;19;20353;-62
2022/04/03 02:42:30;;;;;;;2.97;2.15;;;-3.20;99.90;;;;;;7375678;19;20312;-63
2022/04/03 02:44:56;;;;;;;1.80;1.70;;;-3.30;99.90;;;;;;7375732;19;20320;-62
2022/04/03 02:47:22;;;;;;;2.20;2.00;;;-3.30;99.90;;;;;;7376575;19;20905;-63
2022/04/03 02:49:50;;;;;;;1.80;1.67;;;-3.30;99.90;;;;;;7371502;19;20396;-63
2022/04/03 02:52:16;;;;;;;1.90;1.70;;;-3.30;99.90;;;;;;7376157;19;20324;-63
2022/04/03 02:54:44;;;;;;;2.58;1.77;;;-3.30;99.90;;;;;;7373228;19;20331;-62
2022/04/03 02:57:11;;;;;;;2.00;1.80;;;-3.30;99.90;;;;;;7376548;19;20336;-63
2022/04/03 02:59:36;;;;;;;2.05;1.63;;;-3.40;99.90;;;;;;7380741;19;20893;-62
2022/04/03 03:02:02;;;;;;;2.07;1.83;;;-3.40;99.90;;;;;;7381291;19;20329;-62
2022/04/03 03:04:28;;;;;;;1.90;1.80;;;-3.40;99.90;;;;;;7388987;19;20336;-63
2022/04/03 03:06:54;;;;;;;2.03;1.83;;;-3.40;99.90;;;;;;7385929;19;20340;-63
2022/04/03 03:09:19;;;;;;;5.53;1.88;;;-3.50;99.90;;;;;;7380156;19;20364;-62
2022/04/03 03:11:45;;;;;;;4.30;1.80;;;-3.40;99.90;;;;;;7388350;19;20316;-62
2022/04/03 03:14:11;;;;;;;3.35;1.88;;;-3.40;99.90;;;;;;7387051;19;20346;-62
2022/04/03 03:16:36;;;;;;;3.05;2.10;;;-3.50;99.90;;;;;;7370935;19;20316;-64
2022/04/03 03:19:02;;;;;;;3.10;2.03;;;-3.50;99.90;;;;;;7382118;19;21070;-63
2022/04/03 03:21:28;;;;;;;1.83;1.63;;;-3.50;99.90;;;;;;7384830;19;20320;-63
2022/04/03 03:23:54;;;;;;;1.80;1.70;;;-3.50;99.90;;;;;;7389411;19;20320;-63
2022/04/03 03:26:20;;;;;;;1.90;1.80;;;-3.60;99.90;;;;;;7387729;19;20420;-62
2022/04/03 03:28:46;;;;;;;2.03;1.83;;;-3.60;99.90;;;;;;7385221;19;20353;-63
2022/04/03 03:31:11;;;;;;;1.70;1.60;;;-3.70;99.90;;;;;;7384737;19;20878;-63
2022/04/03 03:33:37;;;;;;;1.60;1.50;;;-3.70;99.90;;;;;;7385431;19;20325;-62
2022/04/03 03:36:03;;;;;;;4.10;1.80;;;-3.80;99.90;;;;;;7384742;19;20880;-62
2022/04/03 03:38:29;;;;;;;1.80;1.70;;;-3.80;99.90;;;;;;7387861;19;20427;-62
2022/04/03 03:40:55;;;;;;;3.15;1.92;;;-3.80;99.90;;;;;;7384119;19;20341;-62
2022/04/03 03:43:21;;;;;;;2.20;1.87;;;-3.80;99.90;;;;;;7384619;19;20300;-62
2022/04/03 03:45:46;;;;;;;2.03;1.93;;;-3.90;99.90;;;;;;7383722;19;20324;-62
2022/04/03 03:48:12;;;;;;;2.53;2.33;;;-3.90;99.90;;;;;;7385547;19;20343;-63
2022/04/03 03:50:38;;;;;;;2.22;2.03;;;-3.90;99.90;;;;;;7382624;19;20305;-62
2022/04/03 03:53:04;;;;;;;2.40;2.20;;;-4.00;99.90;;;;;;7384928;19;20358;-62
2022/04/03 03:55:29;;;;;;;3.50;2.03;;;-4.00;99.90;;;;;;7385006;19;21263;-63
2022/04/03 03:57:55;;;;;;;2.08;1.88;;;-4.10;99.90;;;;;;7388433;19;20305;-62
2022/04/03 04:00:20;;;;;;;2.13;1.93;;;-4.10;99.90;;;;;;7381051;19;20740;-63
2022/04/03 04:02:46;;;;;;;2.20;2.00;;;-4.20;99.90;;;;;;7385352;19;20326;-62
2022/04/03 04:05:11;;;;;;;2.13;1.95;;;-4.20;99.90;;;;;;7383475;19;20345;-62
2022/04/03 04:07:41;;;;;;;2.90;2.20;;;-4.30;99.90;;;;;;7385312;19;20419;-63
2022/04/03 04:10:07;;;;;;;2.15;1.95;;;-4.30;99.90;;;;;;7380240;19;20344;-62
2022/04/03 04:12:34;;;;;;;2.33;2.05;;;-4.30;99.90;;;;;;7383580;19;20346;-62
2022/04/03 04:14:59;;;;;;;2.47;2.20;;;-4.30;99.90;;;;;;7384404;19;20319;-63
2022/04/03 04:17:25;;;;;;;2.30;1.77;;;-4.40;99.90;;;;;;7385108;19;20333;-62
2022/04/03 04:19:51;;;;;;;2.60;2.20;;;-4.40;99.90;;;;;;7381181;19;21232;-62
2022/04/03 04:22:17;;;;;;;1.90;1.80;;;-4.40;99.90;;;;;;7383475;19;20345;-62
2022/04/03 04:24:43;;;;;;;2.20;1.67;;;-4.40;99.90;;;;;;7385587;19;20303;-62
2022/04/03 04:27:08;;;;;;;2.00;1.90;;;-4.50;99.90;;;;;;7384081;19;20325;-62
2022/04/03 04:29:34;;;;;;;1.60;1.50;;;-4.50;99.90;;;;;;7383875;19;20309;-63
2022/04/03 04:32:00;;;;;;;1.80;1.70;;;-4.60;99.90;;;;;;7381686;19;20317;-62
2022/04/03 04:34:25;;;;;;;2.28;1.70;;;-4.70;99.90;;;;;;7382592;19;20380;-62
2022/04/03 04:36:51;;;;;;;2.00;1.80;;;-4.70;99.90;;;;;;7385897;19;20336;-62
2022/04/03 04:39:16;;;;;;;2.07;1.90;;;-4.70;99.90;;;;;;7379841;19;20799;-63
2022/04/03 04:41:42;;;;;;;1.63;1.52;;;-4.70;99.90;;;;;;7381250;19;20311;-63
2022/04/03 04:44:08;;;;;;;2.30;1.90;;;-4.70;99.90;;;;;;7385892;19;20332;-60
2022/04/03 04:46:33;;;;;;;1.83;1.73;;;-4.70;99.90;;;;;;7380380;19;20346;-61
2022/04/03 04:48:59;;;;;;;1.83;1.70;;;-4.80;99.90;;;;;;7383182;19;20367;-62
2022/04/03 04:51:25;;;;;;;1.85;1.63;;;-4.90;99.90;;;;;;7384578;19;20329;-61
2022/04/03 04:53:50;;;;;;;3.00;1.90;;;-4.90;99.90;;;;;;7384195;19;21339;-61
2022/04/03 04:56:16;;;;;;;1.70;1.60;;;-4.80;99.90;;;;;;7386219;19;20384;-61
2022/04/03 04:58:42;;;;;;;1.70;1.60;;;-4.80;99.90;;;;;;7382038;19;20379;-61
2022/04/03 05:01:07;;;;;;;1.93;1.80;;;-4.80;99.90;;;;;;7381949;19;20341;-62
2022/04/03 05:03:33;;;;;;;2.27;1.67;;;-4.80;99.90;;;;;;7383346;19;20875;-61
2022/04/03 05:05:58;;;;;;;2.75;1.77;;;-4.80;99.90;;;;;;7381767;19;21039;-61
2022/04/03 05:08:24;;;;;;;1.70;1.60;;;-4.80;99.90;;;;;;7383443;19;20304;-62
2022/04/03 05:10:50;;;;;;;1.70;1.60;;;-4.80;99.90;;;;;;7380484;19;20308;-61
2022/04/03 05:13:15;;;;;;;1.60;1.50;;;-4.80;99.90;;;;;;7382287;19;20379;-61
2022/04/03 05:15:41;;;;;;;2.50;1.80;;;-4.80;99.90;;;;;;7380838;19;20304;-61
2022/04/03 05:18:07;;;;;;;1.97;1.87;;;-4.70;99.90;;;;;;7382922;19;20374;-61
2022/04/03 05:20:33;;;;;;;1.90;1.80;;;-4.60;99.90;;;;;;7378362;19;20338;-62
2022/04/03 05:22:59;;;;;;;2.90;1.45;;;-4.60;99.90;;;;;;7383045;19;20756;-61
2022/04/03 05:25:24;;;;;;;3.42;2.05;;;-4.50;99.90;;;;;;7383389;19;20345;-61
2022/04/03 05:27:50;;;;;;;1.80;1.70;;;-4.40;99.90;;;;;;7381427;19;20332;-61
2022/04/03 05:30:15;;;;;;;1.97;1.63;;;-4.40;99.90;;;;;;7357731;19;20354;-61
2022/04/03 05:32:41;;;;;;;1.80;1.70;;;-4.30;99.90;;;;;;7382895;19;20347;-61
2022/04/03 05:35:08;;;;;;;2.13;1.73;;;-4.30;99.90;;;;;;7387533;19;20849;-61
2022/04/03 05:37:33;;;;;;;2.40;1.50;;;-4.20;99.90;;;;;;7383324;19;20337;-61
2022/04/03 05:39:59;;;;;;;1.98;1.75;;;-4.10;99.90;;;;;;7380038;19;20304;-61
2022/04/03 05:42:25;;;;;;;1.65;1.55;;;-4.00;99.90;;;;;;7380435;19;20380;-61
2022/04/03 05:44:50;;;;;;;2.77;1.53;;;-3.90;99.90;;;;;;7381413;19;20300;-61
2022/04/03 05:47:17;;;;;;;2.13;1.77;;;-3.70;99.90;;;;;;7383606;19;20408;-61
2022/04/03 05:49:43;;;;;;;3.30;2.05;;;-3.60;99.90;;;;;;7378495;19;20304;-61
2022/04/03 05:52:08;;;;;;;2.17;1.90;;;-3.50;99.90;;;;;;7379480;19;20412;-61
2022/04/03 05:54:34;;;;;;;2.97;2.00;;;-3.40;99.90;;;;;;7384691;19;20896;-61
2022/04/03 05:56:59;;;;;;;1.80;1.70;;;-3.30;99.90;;;;;;7383196;19;20343;-60
2022/04/03 05:59:25;;;;;;;2.28;1.88;;;-3.10;99.90;;;;;;7377088;19;20391;-61
2022/04/03 06:01:50;;;;;;;2.00;1.75;;;-3.10;99.90;;;;;;7379462;19;20313;-60
2022/04/03 06:04:16;;;;;;;1.87;1.77;;;-3.00;99.90;;;;;;7383230;19;20325;-61
2022/04/03 06:06:42;;;;;;;3.38;2.42;;;-2.90;99.90;;;;;;7381698;19;20857;-63
2022/04/03 06:09:08;;;;;;;2.15;1.95;;;-2.70;99.90;;;;;;7375534;19;20723;-61
2022/04/03 06:11:34;;;;;;;1.80;1.70;;;-2.60;99.90;;;;;;7378829;19;20651;-61
2022/04/03 06:14:00;;;;;;;2.27;1.90;;;-2.40;99.90;;;;;;7380168;19;20339;-61
2022/04/03 06:16:26;;;;;;;1.85;1.75;;;-2.30;99.90;;;;;;7380299;19;20419;-61
2022/04/03 06:18:53;;;;;;;4.35;1.85;;;-2.00;99.90;;;;;;7379775;19;20385;-61
2022/04/03 06:21:19;;;;;;;3.50;2.10;;;-1.90;99.90;;;;;;7383363;19;20328;-61
2022/04/03 06:23:45;;;;;;;3.47;2.15;;;-1.70;99.90;;;;;;7380215;19;20305;-62
2022/04/03 06:26:10;;;;;;;2.10;1.90;;;-1.60;99.90;;;;;;7378253;19;20918;-61
2022/04/03 06:28:36;;;;;;;2.90;2.10;;;-1.50;99.90;;;;;;7380975;19;20311;-61
2022/04/03 06:31:01;;;;;;;2.40;2.05;;;-1.40;99.90;;;;;;7374587;19;20357;-61
2022/04/03 06:33:27;;;;;;;3.85;2.30;;;-1.20;99.90;;;;;;7376681;19;20811;-62
2022/04/03 06:35:53;;;;;;;3.00;2.20;;;-1.10;99.90;;;;;;7381196;19;20308;-62
2022/04/03 06:38:19;;;;;;;2.47;2.10;;;-0.90;99.90;;;;;;7381263;19;20325;-62
2022/04/03 06:40:50;;;;;;;3.17;2.00;;;-0.80;99.90;;;;;;7378828;19;20313;-62
2022/04/03 06:43:20;;;;;;;2.03;1.83;;;-0.70;99.90;;;;;;7381962;19;20305;-62
2022/04/03 06:45:47;;;;;;;1.92;1.80;;;-0.60;99.90;;;;;;7378882;19;20337;-61
2022/04/03 06:48:13;;;;;;;2.15;1.95;;;-0.50;99.90;;;;;;7380494;19;20848;-62
2022/04/03 06:50:38;;;;;;;2.37;1.60;;;-0.40;99.90;;;;;;7377555;19;20372;-61
2022/04/03 06:53:04;;;;;;;3.58;1.70;;;-0.30;99.90;;;;;;7377791;19;20323;-62
2022/04/03 06:55:30;;;;;;;4.67;1.97;;;-0.20;99.90;;;;;;7378045;19;20289;-63
2022/04/03 06:57:56;;;;;;;2.23;2.00;;;0.00;99.90;;;;;;7376611;19;20324;-62
2022/04/03 07:00:22;;;;;;;2.15;1.95;;;0.10;99.90;;;;;;7374615;19;20351;-62
2022/04/03 07:02:48;;;;;;;2.47;1.87;;;0.10;99.90;;;;;;7378114;19;20305;-61
2022/04/03 07:05:15;;;;;;;2.13;1.92;;;0.20;99.90;;;;;;7377479;19;20340;-62
2022/04/03 07:07:40;;;;;;;1.80;1.70;;;0.40;99.90;;;;;;7378926;19;20305;-62
2022/04/03 07:10:07;;;;;;;1.95;1.63;;;0.50;99.90;;;;;;7380457;19;20337;-62
2022/04/03 07:12:33;;;;;;;1.67;1.58;;;0.50;99.90;;;;;;7377864;19;20369;-62
2022/04/03 07:14:58;;;;;;;1.73;1.60;;;0.60;99.90;;;;;;7377839;19;20304;-62
2022/04/03 07:17:24;;;;;;;1.85;1.70;;;0.70;99.90;;;;;;7379649;19;20340;-62
2022/04/03 07:19:50;;;;;;;1.83;1.60;;;0.60;99.90;;;;;;7371598;19;20369;-62
2022/04/03 07:22:15;;;;;;;1.97;1.80;;;0.50;99.90;;;;;;7378775;19;20861;-62
2022/04/03 07:24:41;;;;;;;2.17;1.98;;;0.60;99.90;;;;;;7380573;19;20773;-62
2022/04/03 07:27:07;;;;;;;2.70;1.77;;;0.70;99.90;;;;;;7378543;19;20333;-62
2022/04/03 07:29:33;;;;;;;1.50;1.40;;;0.70;99.90;;;;;;7377237;19;20337;-62
2022/04/03 07:31:59;;;;;;;2.10;1.90;;;0.90;99.90;;;;;;7378648;19;20412;-63
2022/04/03 07:34:25;;;;;;;2.00;1.90;;;0.80;99.90;;;;;;7377178;19;20330;-63
2022/04/03 07:36:50;;;;;;;2.30;2.03;;;1.00;99.90;;;;;;7379050;19;20351;-62
2022/04/03 07:39:16;;;;;;;3.60;2.38;;;1.10;99.90;;;;;;7376681;19;20352;-63
2022/04/03 07:41:42;;;;;;;2.07;1.90;;;1.10;99.90;;;;;;7378695;19;20332;-63
2022/04/03 07:44:08;;;;;;;2.30;2.08;;;1.30;99.90;;;;;;7383753;19;20674;-63
2022/04/03 07:46:35;;;;;;;2.37;2.00;;;1.50;99.90;;;;;;7380088;19;20399;-62
2022/04/03 07:49:00;;;;;;;2.97;1.98;;;1.60;99.90;;;;;;7386374;19;20844;-62
2022/04/03 07:51:27;;;;;;;2.22;1.80;;;1.80;99.90;;;;;;7383506;19;20340;-61
2022/04/03 07:53:54;;;;;;;2.90;1.80;;;1.80;99.90;;;;;;7384093;19;20388;-63
2022/04/03 07:56:19;;;;;;;2.38;1.73;;;1.90;99.90;;;;;;7384547;19;20313;-63
2022/04/03 07:58:45;;;;;;;2.25;2.05;;;2.00;99.90;;;;;;7383238;19;20354;-62
2022/04/03 08:01:11;;;;;;;3.87;2.00;;;2.10;99.90;;;;;;7382481;19;20348;-63
2022/04/03 08:03:36;;;;;;;1.98;1.88;;;2.20;99.90;;;;;;7385066;19;20303;-63
2022/04/03 08:06:02;;;;;;;2.67;2.30;;;2.40;99.90;;;;;;7385143;19;20692;-63
2022/04/03 08:08:28;;;;;;;3.00;2.40;;;2.70;99.90;;;;;;7385081;19;20326;-63
2022/04/03 08:10:53;;;;;;;2.20;1.80;;;2.70;99.90;;;;;;7382457;19;20406;-63
2022/04/03 08:13:20;;;;;;;2.35;1.65;;;2.70;99.90;;;;;;7387596;19;20308;-63
2022/04/03 08:15:46;;;;;;;3.33;1.83;;;2.50;99.90;;;;;;7385970;19;20308;-63
2022/04/03 08:18:12;;;;;;;1.87;1.70;;;2.70;99.90;;;;;;7382888;19;20354;-63
2022/04/03 08:20:38;;;;;;;2.40;1.80;;;2.60;99.90;;;;;;7382846;19;20400;-63
2022/04/03 08:23:05;;;;;;;1.70;1.52;;;2.80;99.90;;;;;;7384081;19;20312;-63
2022/04/03 08:25:31;;;;;;;1.73;1.60;;;2.90;99.90;;;;;;7383187;19;20346;-63
2022/04/03 08:27:57;;;;;;;1.97;1.73;;;3.00;99.90;;;;;;7385530;19;20388;-63
2022/04/03 08:30:27;;;;;;;2.83;2.30;;;3.10;99.90;;;;;;7383939;19;20317;-63
2022/04/03 08:32:53;;;;;;;2.10;1.90;;;3.10;99.90;;;;;;7386586;19;20320;-63
2022/04/03 08:35:19;;;;;;;2.90;1.90;;;3.30;99.90;;;;;;7384565;19;20722;-63
2022/04/03 08:37:45;;;;;;;6.15;4.15;;;3.40;99.90;;;;;;7385299;19;20305;-63
2022/04/03 08:40:11;;;;;;;3.95;2.58;;;3.30;99.90;;;;;;7367478;19;20355;-63
2022/04/03 08:42:37;;;;;;;2.42;1.83;;;3.40;99.90;;;;;;7382843;19;20348;-63
2022/04/03 08:45:04;;;;;;;5.63;3.20;;;3.50;99.90;;;;;;7385890;19;20313;-62
2022/04/03 08:47:29;;;;;;;1.95;1.75;;;3.60;99.90;;;;;;7388457;19;20349;-63
2022/04/03 08:50:00;;;;;;;2.93;2.63;;;3.60;99.90;;;;;;7383372;19;20309;-62
2022/04/03 08:52:27;;;;;;;3.13;2.28;;;3.60;99.90;;;;;;7384210;19;20305;-62
2022/04/03 08:54:52;;;;;;;2.88;2.08;;;3.60;99.90;;;;;;7383469;19;20335;-62
2022/04/03 08:57:18;;;;;;;2.93;2.10;;;3.50;99.90;;;;;;7383988;19;20413;-62
2022/04/03 08:59:44;;;;;;;4.20;2.92;;;3.70;99.90;;;;;;7383954;19;20838;-63
2022/04/03 09:02:12;;;;;;;2.30;2.07;;;3.80;99.90;;;;;;7381822;19;20323;-62
2022/04/03 09:04:38;;;;;;;2.97;2.15;;;4.00;99.90;;;;;;7384455;19;20324;-62
2022/04/03 09:07:04;;;;;;;2.03;1.83;;;3.90;99.90;;;;;;7384551;19;20415;-62
2022/04/03 09:09:30;;;;;;;2.10;1.90;;;3.80;99.90;;;;;;7383077;19;20317;-63
2022/04/03 09:12:12;;;;;;;2.87;2.53;;;4.10;99.90;;;;;;7383656;19;20333;-65
2022/04/03 09:14:51;;;;;;;4.63;3.78;;;4.10;99.90;;;;;;7279113;19;2004781;-63
2022/04/03 09:17:42;;;;;;;1.98;1.77;;;4.20;99.90;;;;;;7280498;19;2004501;-62
2022/04/03 09:20:12;;;;;;;1.97;1.70;;;4.30;99.90;;;;;;7375898;19;20348;-63
2022/04/03 09:22:39;;;;;;;1.83;1.70;;;4.40;99.90;;;;;;7380062;19;20332;-63
2022/04/03 09:25:06;;;;;;;4.28;2.08;;;4.10;99.90;;;;;;7377796;19;20346;-63
2022/04/03 09:27:35;;;;;;;2.25;1.75;;;4.30;99.90;;;;;;7380560;19;20361;-63
2022/04/03 09:30:04;;;;;;;2.58;1.80;;;4.70;99.90;;;;;;7380987;19;20336;-63
2022/04/03 09:32:30;;;;;;;1.95;1.80;;;4.80;99.90;;;;;;7381007;19;20921;-64
2022/04/03 09:34:57;;;;;;;3.00;2.73;;;5.00;99.30;;;;;;7383516;19;20333;-62
2022/04/03 09:37:23;;;;;;;1.90;1.80;;;5.20;99.50;;;;;;7384294;19;20340;-63
2022/04/03 09:39:48;;;;;;;3.08;2.30;;;5.20;99.90;;;;;;7378278;19;20345;-62
2022/04/03 09:42:15;;;;;;;4.83;3.67;;;5.50;99.90;;;;;;7381144;19;20403;-62
2022/04/03 09:44:42;;;;;;;2.33;2.13;;;5.70;99.90;;;;;;7380811;19;20447;-63
2022/04/03 09:47:15;;;;;;;2.17;1.85;;;5.70;98.80;;;;;;7377662;19;20336;-63
2022/04/03 09:49:45;;;;;;;2.10;1.90;;;5.20;95.00;;;;;;7380573;19;20399;-63
2022/04/03 09:52:11;;;;;;;1.80;1.70;;;5.00;93.60;;;;;;7379939;19;20328;-62
2022/04/03 09:54:40;;;;;;;1.70;1.58;;;5.10;95.30;;;;;;7378129;19;20372;-63
2022/04/03 09:57:19;;;;;;;2.28;1.88;;;5.50;95.20;;;;;;7384276;19;20320;-63
2022/04/03 09:59:54;;;;;;;2.25;1.70;;;5.60;93.30;;;;;;7275855;19;2006064;-63
2022/04/03 10:02:20;;;;;;;3.20;1.70;;;5.50;89.90;;;;;;7276919;19;2004404;-62
2022/04/03 10:04:46;;;;;;;1.70;1.60;;;5.30;90.20;;;;;;7382812;19;20341;-63
2022/04/03 10:07:15;;;;;;;1.45;1.35;;;5.20;85.00;;;;;;7379617;19;20358;-63
2022/04/03 10:09:44;;;;;;;1.50;1.40;;;5.00;81.20;;;;;;7376351;19;20411;-63
2022/04/03 10:12:10;;;;;;;1.40;1.30;;;4.80;80.00;;;;;;7380399;19;20325;-63
2022/04/03 10:14:35;;;;;;;1.40;1.30;;;4.50;82.50;;;;;;7359319;19;20678;-63
2022/04/03 10:17:01;;;;;;;2.45;1.85;;;4.40;83.40;;;;;;7380840;19;20955;-63
2022/04/03 10:19:27;;;;;;;1.70;1.60;;;4.50;82.30;;;;;;7379060;19;20784;-63
2022/04/03 10:21:54;;;;;;;1.50;1.40;;;4.70;84.20;;;;;;7379397;19;20311;-63
2022/04/03 10:24:21;;;;;;;1.55;1.42;;;4.70;82.70;;;;;;7379178;19;20293;-63
2022/04/03 10:26:51;;;;;;;2.03;1.45;;;4.80;83.60;;;;;;7379492;19;20349;-64
2022/04/03 10:29:17;;;;;;;1.50;1.40;;;5.10;81.30;;;;;;7376769;19;21218;-64
2022/04/03 10:31:54;;;;;;;1.33;1.23;;;5.10;79.80;;;;;;7377204;19;20344;-64
2022/04/03 10:34:20;;;;;;;1.50;1.40;;;5.30;81.20;;;;;;7279365;19;2004621;-64
2022/04/03 10:36:46;;;;;;;1.63;1.30;;;5.70;77.90;;;;;;7376174;19;20301;-64
2022/04/03 10:39:13;;;;;;;1.50;1.40;;;6.20;77.50;;;;;;7374380;19;20644;-64
2022/04/03 10:41:43;;;;;;;1.88;1.20;;;6.40;74.10;;;;;;7378008;19;20387;-65
2022/04/03 10:44:19;;;;;;;1.45;1.35;;;6.90;76.10;;;;;;7376237;19;20359;-63
2022/04/03 10:47:03;;;;;;;1.63;1.53;;;6.90;72.90;;;;;;7375804;19;20348;-64
2022/04/03 10:49:29;;;;;;;1.58;1.30;;;6.80;73.00;;;;;;7375089;19;20395;-63
2022/04/03 10:52:04;;;;;;;2.97;1.73;;;6.40;72.00;;;;;;7374020;19;20325;-64
2022/04/03 10:54:31;;;;;;;1.50;1.40;;;6.20;71.90;;;;;;7378163;19;20416;-64
2022/04/03 10:57:40;;;;;;;1.70;1.60;;;5.80;71.20;;;;;;7373156;19;20387;-64
2022/04/03 11:00:12;;;;;;;1.65;1.50;;;5.80;71.10;;;;;;7270614;19;2004498;-64
2022/04/03 11:03:00;;;;;;;3.65;2.58;;;5.30;69.80;;;;;;7372118;19;20333;-64
2022/04/03 11:05:26;;;;;;;2.35;1.50;;;5.60;71.40;;;;;;7272589;19;2004469;-65
2022/04/03 11:08:18;;;;;;;1.40;1.30;;;5.40;72.80;;;;;;7378486;19;20711;-64
2022/04/03 11:10:56;;;;;;;2.65;1.40;;;5.50;76.60;;;;;;7266885;19;2004544;-65
2022/04/03 11:13:31;;;;;;;1.37;1.27;;;5.50;75.90;;;;;;7374405;19;20344;-64
2022/04/03 11:16:01;;;;;;;1.35;1.25;;;5.40;76.00;;;;;;7374614;19;20362;-65
2022/04/03 11:18:37;;;;;;;2.20;1.40;;;5.50;76.00;;;;;;7373249;19;20305;-64
2022/04/03 11:21:15;;;;;;;2.65;1.70;;;5.70;75.00;;;;;;7282448;19;2004461;-64
2022/04/03 11:23:43;;;;;;;1.42;1.33;;;5.90;75.60;;;;;;7280536;19;2004805;-64
2022/04/03 11:26:09;;;;;;;1.40;1.30;;;5.80;75.30;;;;;;7382371;19;20963;-65
2022/04/03 11:28:35;;;;;;;1.95;1.65;;;5.90;74.50;;;;;;7383063;19;20329;-64
2022/04/03 11:31:01;;;;;;;2.00;1.33;;;6.00;75.70;;;;;;7375389;19;20340;-63
2022/04/03 11:33:29;;;;;;;2.00;1.40;;;6.30;76.10;;;;;;7375539;19;20328;-64
2022/04/03 11:35:55;;;;;;;1.30;1.20;;;6.40;75.20;;;;;;7380665;19;20325;-64
2022/04/03 11:38:21;;;;;;;2.42;1.63;;;6.00;73.10;;;;;;7379549;19;20305;-63
2022/04/03 11:40:47;;;;;;;2.13;1.70;;;6.30;75.60;;;;;;7376618;19;20401;-64
2022/04/03 11:43:15;;;;;;;1.80;1.70;;;6.10;73.90;;;;;;7381473;19;20360;-64
2022/04/03 11:46:09;;;;;;;3.10;1.60;;;5.90;75.20;;;;;;7382613;19;20325;-64
2022/04/03 11:48:45;;;;;;;2.45;2.00;;;5.70;75.60;;;;;;7277217;19;2006079;-66
2022/04/03 11:51:12;;;;;;;1.97;1.40;;;5.70;77.90;;;;;;7376324;19;20347;-64
2022/04/03 11:53:40;;;;;;;1.45;1.35;;;5.60;76.30;;;;;;7378500;19;20308;-63
2022/04/03 11:56:13;;;;;;;1.30;1.20;;;5.60;75.10;;;;;;7380275;19;20328;-64
2022/04/03 11:58:49;;;;;;;1.65;1.40;;;5.70;72.10;;;;;;7378241;19;20309;-65
2022/04/03 12:01:31;;;;;;;1.70;1.33;;;5.90;72.30;;;;;;7380528;19;20332;-64
2022/04/03 12:04:10;;;;;;;1.50;1.40;;;6.10;72.50;;;;;;7379395;19;20341;-65
2022/04/03 12:06:37;;;;;;;1.60;1.50;;;6.20;70.20;;;;;;7382939;19;20983;-65
2022/04/03 12:09:11;;;;;;;1.80;1.50;;;6.00;68.90;;;;;;7374722;19;21182;-65
2022/04/03 12:11:38;;;;;;;1.52;1.35;;;6.20;70.80;;;;;;7378243;19;20392;-63
2022/04/03 12:14:05;;;;;;;1.48;1.38;;;6.70;72.70;;;;;;7379352;19;20336;-63
2022/04/03 12:16:35;;;;;;;1.40;1.30;;;6.70;71.60;;;;;;7380362;19;20452;-63
2022/04/03 12:19:08;;;;;;;1.65;1.50;;;6.70;71.70;;;;;;7375064;19;20340;-63
2022/04/03 12:21:49;;;;;;;1.70;1.50;;;6.30;70.10;;;;;;7377442;19;20369;-63
2022/04/03 12:24:16;;;;;;;3.80;1.80;;;6.00;71.70;;;;;;7377442;19;20321;-64
2022/04/03 12:26:51;;;;;;;3.30;2.22;;;5.90;74.30;;;;;;7379656;19;20312;-63
2022/04/03 12:29:17;;;;;;;4.95;1.95;;;5.50;71.80;;;;;;7377580;19;20320;-63
2022/04/03 12:31:44;;;;;;;1.47;1.37;;;5.40;71.70;;;;;;7375176;19;20305;-63
2022/04/03 12:34:16;;;;;;;1.50;1.40;;;5.30;73.20;;;;;;7378267;19;20595;-64
2022/04/03 12:36:47;;;;;;;1.83;1.48;;;5.60;72.00;;;;;;7378731;19;20330;-63
2022/04/03 12:39:41;;;;;;;1.70;1.40;;;5.70;71.30;;;;;;7377243;19;20328;-63
2022/04/03 12:42:10;;;;;;;1.48;1.38;;;6.10;71.40;;;;;;7274265;19;2004522;-64
2022/04/03 12:44:48;;;;;;;1.30;1.20;;;5.70;69.70;;;;;;7379461;19;20311;-63
2022/04/03 12:47:29;;;;;;;1.40;1.30;;;5.80;70.00;;;;;;7278084;19;2004535;-63
2022/04/03 12:50:05;;;;;;;2.50;1.40;;;5.70;69.10;;;;;;7273831;19;2004460;-63
2022/04/03 12:52:38;;;;;;;1.97;1.77;;;6.00;72.10;;;;;;7376271;19;20341;-64